createdAt,value
2023-04-02T00:02:21.757Z,5.72
2023-04-02T00:05:16.767Z,5.53
2023-04-02T00:07:49.088Z,5.63
2023-04-02T00:10:33.731Z,5.28
2023-04-02T00:13:17.811Z,4.93
2023-04-02T00:15:49.293Z,4.43
2023-04-02T00:18:23.181Z,4.50
2023-04-02T00:21:19.740Z,5.00
2023-04-02T00:23:47.087Z,4.57
2023-04-02T00:26:43.405Z,4.18
2023-04-02T00:29:15.062Z,4.18
2023-04-02T00:31:44.566Z,3.85
2023-04-02T00:34:38.262Z,4.43
2023-04-02T00:37:06.080Z,4.70
2023-04-02T00:39:42.347Z,4.38
2023-04-02T00:42:12.777Z,4.85
2023-04-02T00:44:45.601Z,4.80
2023-04-02T00:47:47.867Z,5.20
2023-04-02T00:50:15.717Z,4.25
2023-04-02T00:52:48.431Z,4.45
2023-04-02T00:55:21.637Z,4.28
2023-04-02T01:00:29.435Z,4.75
2023-04-02T01:03:18.317Z,4.88
2023-04-02T01:05:50.412Z,4.53
2023-04-02T01:08:23.731Z,3.92
2023-04-02T01:13:26.107Z,3.50
2023-04-02T01:16:20.919Z,4.18
2023-04-02T01:19:02.065Z,3.88
2023-04-02T01:21:53.958Z,4.22
2023-04-02T01:24:22.214Z,3.70
2023-04-02T01:26:59.959Z,3.75
2023-04-02T01:29:42.464Z,3.60
2023-04-02T01:32:13.120Z,4.00
2023-04-02T01:34:44.866Z,3.53
2023-04-02T01:37:14.910Z,3.80
2023-04-02T01:39:44.991Z,3.85
2023-04-02T01:42:14.838Z,4.13
2023-04-02T01:44:48.570Z,4.00
2023-04-02T01:47:18.921Z,3.85
2023-04-02T01:49:46.720Z,3.83
2023-04-02T01:52:25.997Z,3.42
2023-04-02T01:54:53.805Z,4.10
2023-04-02T01:57:21.494Z,3.40
2023-04-02T01:59:48.954Z,4.13
2023-04-02T02:02:16.548Z,4.55
2023-04-02T02:04:44.612Z,4.38
2023-04-02T02:07:20.923Z,3.45
2023-04-02T02:09:53.342Z,4.38
2023-04-02T02:12:21.566Z,3.83
2023-04-02T02:14:50.400Z,4.10
2023-04-02T02:17:24.313Z,4.22
2023-04-02T02:19:57.130Z,4.20
2023-04-02T02:22:39.060Z,4.40
2023-04-02T02:25:13.842Z,3.63
2023-04-02T02:28:04.033Z,4.15
2023-04-02T02:31:28.133Z,3.60
2023-04-02T02:34:04.396Z,3.50
2023-04-02T02:36:40.254Z,4.10
2023-04-02T02:39:13.423Z,3.92
2023-04-02T02:41:49.790Z,3.63
2023-04-02T02:44:23.147Z,3.80
2023-04-02T02:46:54.834Z,4.03
2023-04-02T02:49:28.976Z,4.03
2023-04-02T02:52:13.636Z,3.92
2023-04-02T02:54:55.090Z,3.67
2023-04-02T02:57:33.911Z,3.65
2023-04-02T03:00:05.693Z,4.88
2023-04-02T03:02:36.867Z,3.92
2023-04-02T03:05:07.675Z,4.18
2023-04-02T03:07:37.430Z,4.45
2023-04-02T03:10:41.393Z,3.70
2023-04-02T03:13:27.179Z,4.60
2023-04-02T03:16:09.457Z,3.72
2023-04-02T03:18:51.149Z,4.20
2023-04-02T03:21:25.251Z,4.60
2023-04-02T03:24:01.317Z,4.10
2023-04-02T03:26:38.396Z,4.45
2023-04-02T03:29:19.837Z,4.43
2023-04-02T03:32:06.222Z,3.60
2023-04-02T03:34:46.979Z,4.55
2023-04-02T03:37:33.239Z,4.47
2023-04-02T03:40:15.455Z,3.80
2023-04-02T03:43:00.479Z,4.03
2023-04-02T03:45:32.536Z,3.50
2023-04-02T03:48:16.252Z,4.75
2023-04-02T03:50:46.907Z,3.90
2023-04-02T03:53:14.168Z,4.72
2023-04-02T03:55:43.122Z,3.90
2023-04-02T03:58:29.153Z,3.65
2023-04-02T04:01:12.565Z,4.10
2023-04-02T04:03:45.272Z,4.35
2023-04-02T04:06:23.528Z,4.30
2023-04-02T04:09:01.200Z,4.45
2023-04-02T04:11:34.996Z,4.88
2023-04-02T04:14:16.447Z,4.25
2023-04-02T04:16:54.234Z,4.60
2023-04-02T04:19:39.408Z,4.35
2023-04-02T04:22:15.124Z,4.10
2023-04-02T04:24:46.030Z,3.90
2023-04-02T04:27:33.871Z,4.55
2023-04-02T04:30:36.829Z,3.72
2023-04-02T04:33:16.915Z,4.68
2023-04-02T04:35:52.464Z,4.43
2023-04-02T04:38:28.251Z,5.10
2023-04-02T04:41:02.392Z,5.00
2023-04-02T04:43:32.120Z,6.00
2023-04-02T04:46:08.523Z,5.22
2023-04-02T04:48:38.176Z,5.13
2023-04-02T04:51:37.534Z,7.05
2023-04-02T04:54:05.542Z,7.07
2023-04-02T04:56:35.147Z,7.25
2023-04-02T04:59:27.315Z,6.97
2023-04-02T05:02:24.788Z,7.28
2023-04-02T05:04:53.966Z,7.85
2023-04-02T05:07:29.937Z,8.50
2023-04-02T05:10:20.334Z,11.02
2023-04-02T05:13:07.950Z,9.45
2023-04-02T05:16:01.452Z,10.38
2023-04-02T05:18:36.769Z,8.68
2023-04-02T05:21:07.122Z,8.10
2023-04-02T05:23:58.115Z,6.60
2023-04-02T05:26:32.634Z,6.20
2023-04-02T05:29:36.372Z,5.93
2023-04-02T05:32:14.068Z,5.22
2023-04-02T05:34:47.317Z,4.90
2023-04-02T05:39:52.940Z,4.30
2023-04-02T05:42:31.935Z,5.40
2023-04-02T05:45:09.001Z,4.47
2023-04-02T05:47:41.269Z,4.43
2023-04-02T05:50:40.481Z,5.32
2023-04-02T05:53:23.022Z,5.40
2023-04-02T05:56:00.051Z,4.82
2023-04-02T05:58:44.040Z,5.22
2023-04-02T06:01:49.784Z,4.30
2023-04-02T06:04:32.838Z,4.75
2023-04-02T06:07:19.720Z,4.88
2023-04-02T06:09:58.620Z,4.13
2023-04-02T06:12:32.288Z,4.45
2023-04-02T06:15:01.132Z,4.18
2023-04-02T06:17:43.510Z,3.72
2023-04-02T06:20:16.820Z,4.18
2023-04-02T06:22:51.563Z,4.40
2023-04-02T06:25:28.270Z,4.28
2023-04-02T06:28:00.080Z,4.28
2023-04-02T06:30:39.653Z,3.47
2023-04-02T06:33:08.210Z,3.80
2023-04-02T06:35:39.991Z,3.00
2023-04-02T06:38:19.744Z,4.10
2023-04-02T06:40:53.262Z,3.67
2023-04-02T06:43:51.247Z,4.30
2023-04-02T06:46:41.278Z,3.95
2023-04-02T06:49:51.704Z,4.70
2023-04-02T06:52:28.972Z,4.72
2023-04-02T06:54:57.724Z,4.82
2023-04-02T06:57:25.281Z,6.05
2023-04-02T06:59:54.075Z,6.32
2023-04-02T07:02:26.936Z,5.50
2023-04-02T07:05:05.016Z,4.88
2023-04-02T07:07:34.428Z,4.55
2023-04-02T07:10:04.567Z,4.00
2023-04-02T07:12:31.788Z,3.67
2023-04-02T07:14:58.968Z,4.20
2023-04-02T07:17:27.077Z,4.07
2023-04-02T07:19:54.317Z,3.75
2023-04-02T07:22:23.836Z,3.75
2023-04-02T07:24:55.376Z,3.65
2023-04-02T07:27:22.707Z,3.65
2023-04-02T07:29:49.830Z,3.42
2023-04-02T07:32:17.451Z,3.50
2023-04-02T07:34:44.531Z,3.65
2023-04-02T07:37:14.657Z,3.65
2023-04-02T07:39:41.992Z,3.72
2023-04-02T07:42:09.058Z,3.78
2023-04-02T07:44:36.344Z,3.58
2023-04-02T07:47:04.215Z,3.80
2023-04-02T07:49:31.333Z,3.83
2023-04-02T07:51:58.466Z,3.58
2023-04-02T07:54:27.406Z,3.80
2023-04-02T07:56:54.562Z,3.83
2023-04-02T07:59:21.768Z,3.92
2023-04-02T08:01:49.023Z,4.28
2023-04-02T08:04:21.564Z,3.30
2023-04-02T08:06:49.857Z,3.50
2023-04-02T08:09:17.782Z,3.13
2023-04-02T08:11:46.702Z,3.60
2023-04-02T08:14:14.321Z,4.07
2023-04-02T08:16:47.730Z,3.85
2023-04-02T08:19:15.835Z,3.80
2023-04-02T08:21:43.401Z,4.22
2023-04-02T08:24:10.483Z,3.60
2023-04-02T08:26:37.808Z,4.32
2023-04-02T08:29:05.130Z,3.75
2023-04-02T08:31:32.468Z,4.47
2023-04-02T08:33:59.724Z,4.03
2023-04-02T08:36:33.615Z,3.92
2023-04-02T08:39:01.382Z,3.75
2023-04-02T08:41:31.202Z,3.67
2023-04-02T08:44:19.606Z,4.30
2023-04-02T08:46:52.370Z,3.88
2023-04-02T08:49:43.142Z,3.05
2023-04-02T08:52:23.326Z,2.67
2023-04-02T08:54:51.066Z,3.78
2023-04-02T08:57:37.973Z,3.10
2023-04-02T09:00:13.538Z,2.90
2023-04-02T09:02:47.075Z,3.58
2023-04-02T09:05:21.110Z,3.00
2023-04-02T09:07:50.946Z,3.38
2023-04-02T09:10:19.333Z,2.83
2023-04-02T09:12:53.541Z,2.80
2023-04-02T09:15:29.801Z,3.00
2023-04-02T09:18:04.496Z,3.90
2023-04-02T09:20:31.687Z,2.92
2023-04-02T09:22:59.559Z,3.20
2023-04-02T09:25:32.519Z,3.22
2023-04-02T09:28:05.333Z,2.90
2023-04-02T09:30:32.574Z,3.38
2023-04-02T09:33:07.811Z,3.13
2023-04-02T09:35:38.065Z,3.42
2023-04-02T09:38:08.085Z,3.00
2023-04-02T09:40:59.979Z,3.22
2023-04-02T09:43:30.440Z,3.05
2023-04-02T09:46:18.509Z,2.75
2023-04-02T09:49:03.814Z,3.40
2023-04-02T09:51:36.724Z,3.05
2023-04-02T09:54:04.053Z,3.72
2023-04-02T09:56:33.408Z,3.42
2023-04-02T09:59:12.646Z,3.38
2023-04-02T10:01:41.222Z,3.80
2023-04-02T10:04:44.653Z,3.42
2023-04-02T10:07:30.809Z,3.10
2023-04-02T10:10:04.175Z,3.33
2023-04-02T10:15:06.431Z,5.60
2023-04-02T10:17:38.368Z,3.53
2023-04-02T10:20:22.761Z,3.00
2023-04-02T10:22:50.431Z,3.35
2023-04-02T10:25:21.948Z,2.70
2023-04-02T10:28:43.143Z,2.95
2023-04-02T10:31:25.575Z,3.45
2023-04-02T10:34:02.876Z,3.37
2023-04-02T10:36:39.026Z,3.30
2023-04-02T10:39:37.704Z,2.88
2023-04-02T10:42:26.205Z,3.97
2023-04-02T10:45:05.144Z,3.45
2023-04-02T10:47:32.427Z,4.00
2023-04-02T10:50:14.416Z,3.15
2023-04-02T10:52:57.699Z,3.67
2023-04-02T10:57:56.917Z,3.25
2023-04-02T11:00:37.318Z,3.35
2023-04-02T11:03:13.441Z,3.50
2023-04-02T11:05:44.422Z,3.58
2023-04-02T11:08:23.491Z,3.33
2023-04-02T11:11:10.042Z,3.70
2023-04-02T11:13:53.666Z,3.53
2023-04-02T11:16:21.561Z,3.33
2023-04-02T11:19:16.234Z,3.17
2023-04-02T11:21:59.720Z,3.63
2023-04-02T11:24:31.788Z,3.60
2023-04-02T11:27:36.326Z,3.97
2023-04-02T11:30:11.810Z,3.50
2023-04-02T11:32:43.078Z,3.65
2023-04-02T11:35:38.322Z,3.40
2023-04-02T11:38:12.527Z,3.30
2023-04-02T11:40:52.319Z,4.00
2023-04-02T11:43:36.996Z,4.53
2023-04-02T11:46:19.202Z,3.72
2023-04-02T11:48:46.908Z,4.72
2023-04-02T11:51:23.074Z,3.95
2023-04-02T11:53:54.010Z,3.42
2023-04-02T11:56:39.460Z,3.50
2023-04-02T11:59:26.646Z,4.35
2023-04-02T12:02:04.816Z,3.75
2023-04-02T12:04:40.004Z,3.53
2023-04-02T12:07:52.449Z,4.05
2023-04-02T12:10:22.848Z,3.65
2023-04-02T12:12:51.167Z,3.60
2023-04-02T12:15:57.883Z,3.72
2023-04-02T12:18:25.653Z,4.10
2023-04-02T12:20:56.134Z,4.03
2023-04-02T12:23:29.891Z,3.45
2023-04-02T12:26:02.195Z,3.80
2023-04-02T12:28:31.487Z,4.10
2023-04-02T12:31:15.107Z,3.90
2023-04-02T12:33:43.350Z,3.53
2023-04-02T12:36:16.207Z,3.70
2023-04-02T12:39:16.974Z,3.53
2023-04-02T12:41:44.272Z,3.95
2023-04-02T12:44:17.416Z,3.72
2023-04-02T12:49:41.684Z,3.45
2023-04-02T12:52:14.921Z,3.53
2023-04-02T12:57:30.347Z,3.25
2023-04-02T12:59:58.477Z,3.53
2023-04-02T13:02:31.944Z,3.13
2023-04-02T13:05:01.691Z,4.22
2023-04-02T13:07:33.685Z,3.67
2023-04-02T13:10:03.077Z,3.67
2023-04-02T13:12:37.506Z,3.67
2023-04-02T13:15:17.075Z,3.38
2023-04-02T13:17:48.271Z,3.53
2023-04-02T13:20:38.912Z,3.40
2023-04-02T13:23:30.961Z,3.47
2023-04-02T13:26:01.388Z,4.00
2023-04-02T13:28:29.640Z,3.63
2023-04-02T13:30:57.100Z,3.08
2023-04-02T13:33:24.228Z,3.58
2023-04-02T13:35:51.621Z,3.53
2023-04-02T13:38:18.802Z,3.42
2023-04-02T13:40:46.606Z,4.00
2023-04-02T13:43:19.753Z,3.40
2023-04-02T13:45:51.886Z,3.97
2023-04-02T13:48:19.431Z,3.10
2023-04-02T13:50:46.876Z,3.55
2023-04-02T13:53:22.446Z,3.92
2023-04-02T13:55:49.792Z,4.70
2023-04-02T13:58:17.009Z,4.10
2023-04-02T14:00:44.358Z,3.78
2023-04-02T14:03:22.548Z,3.28
2023-04-02T14:06:10.771Z,3.80
2023-04-02T14:08:51.132Z,4.57
2023-04-02T14:11:27.396Z,3.90
2023-04-02T14:14:23.927Z,3.35
2023-04-02T14:17:11.583Z,3.60
2023-04-02T14:19:59.883Z,3.80
2023-04-02T14:22:48.055Z,3.70
2023-04-02T14:25:36.983Z,3.50
2023-04-02T14:28:23.926Z,3.60
2023-04-02T14:31:05.770Z,3.45
2023-04-02T14:34:16.420Z,3.72
2023-04-02T14:36:56.671Z,3.42
2023-04-02T14:39:38.754Z,3.40
2023-04-02T14:42:44.372Z,3.35
2023-04-02T14:45:23.456Z,3.53
2023-04-02T14:47:57.824Z,3.42
2023-04-02T14:50:33.275Z,3.90
2023-04-02T14:53:13.375Z,3.20
2023-04-02T14:55:44.135Z,4.25
2023-04-02T14:58:31.864Z,3.90
2023-04-02T15:01:03.351Z,3.35
2023-04-02T15:03:43.209Z,3.58
2023-04-02T15:06:21.484Z,2.83
2023-04-02T15:09:09.265Z,3.90
2023-04-02T15:11:41.902Z,3.92
2023-04-02T15:14:20.802Z,3.50
2023-04-02T15:16:48.185Z,3.63
2023-04-02T15:19:18.069Z,3.25
2023-04-02T15:21:57.706Z,3.55
2023-04-02T15:24:51.263Z,3.83
2023-04-02T15:27:34.555Z,3.45
2023-04-02T15:30:13.101Z,3.83
2023-04-02T15:32:41.969Z,3.83
2023-04-02T15:35:22.577Z,3.83
2023-04-02T15:37:53.251Z,4.00
2023-04-02T15:40:24.386Z,3.70
2023-04-02T15:43:20.223Z,3.45
2023-04-02T15:46:08.311Z,3.40
2023-04-02T15:48:53.743Z,3.97
2023-04-02T15:51:33.870Z,3.85
2023-04-02T15:54:11.875Z,3.33
2023-04-02T15:57:01.573Z,3.90
2023-04-02T16:00:22.757Z,4.13
2023-04-02T16:03:11.817Z,3.13
2023-04-02T16:05:50.274Z,4.10
2023-04-02T16:08:33.458Z,3.50
2023-04-02T16:11:00.831Z,3.85
2023-04-02T16:13:35.325Z,3.03
2023-04-02T16:16:07.340Z,4.78
2023-04-02T16:18:49.538Z,3.83
2023-04-02T16:21:22.356Z,3.95
2023-04-02T16:23:50.561Z,4.25
2023-04-02T16:26:27.382Z,4.20
2023-04-02T16:29:16.785Z,4.82
2023-04-02T16:32:11.557Z,4.68
2023-04-02T16:35:23.976Z,4.22
2023-04-02T16:37:58.550Z,3.97
2023-04-02T16:41:07.020Z,4.10
2023-04-02T16:43:42.407Z,4.82
2023-04-02T16:46:38.836Z,5.40
2023-04-02T16:49:38.559Z,5.63
2023-04-02T16:52:25.817Z,5.10
2023-04-02T16:55:09.557Z,5.30
2023-04-02T16:57:50.685Z,4.95
2023-04-02T17:00:32.529Z,5.15
2023-04-02T17:03:19.234Z,5.43
2023-04-02T17:06:01.985Z,5.05
2023-04-02T17:08:57.111Z,5.20
2023-04-02T17:11:30.506Z,4.63
2023-04-02T17:16:43.905Z,5.00
2023-04-02T17:19:14.881Z,4.70
2023-04-02T17:21:45.607Z,5.43
2023-04-02T17:24:21.906Z,5.40
2023-04-02T17:26:54.085Z,4.57
2023-04-02T17:29:35.412Z,5.55
2023-04-02T17:32:06.603Z,5.00
2023-04-02T17:34:33.774Z,4.97
2023-04-02T17:37:07.122Z,4.57
2023-04-02T17:42:36.242Z,5.65
2023-04-02T17:45:19.558Z,4.82
2023-04-02T17:47:59.221Z,5.57
2023-04-02T17:50:37.766Z,6.35
2023-04-02T17:53:21.925Z,6.22
2023-04-02T17:56:22.083Z,6.85
2023-04-02T17:58:55.208Z,6.70
2023-04-02T18:01:22.381Z,7.38
2023-04-02T18:04:03.288Z,7.10
2023-04-02T18:06:42.065Z,6.82
2023-04-02T18:09:22.392Z,6.65
2023-04-02T18:12:01.594Z,6.32
2023-04-02T18:15:02.195Z,7.30
2023-04-02T18:17:51.273Z,7.15
2023-04-02T18:20:34.897Z,7.13
2023-04-02T18:25:42.951Z,7.28
2023-04-02T18:31:19.691Z,6.63
2023-04-02T18:34:30.650Z,6.47
2023-04-02T18:37:15.966Z,6.78
2023-04-02T18:40:22.285Z,7.43
2023-04-02T18:42:51.207Z,6.82
2023-04-02T18:45:35.065Z,7.55
2023-04-02T18:48:35.261Z,9.05
2023-04-02T18:51:06.921Z,7.95
2023-04-02T18:53:37.311Z,5.90
2023-04-02T18:56:11.983Z,4.32
2023-04-02T18:58:53.086Z,3.60
2023-04-02T19:01:28.642Z,3.97
2023-04-02T19:04:04.921Z,4.35
2023-04-02T19:06:47.436Z,4.18
2023-04-02T19:09:25.516Z,5.32
2023-04-02T19:11:54.031Z,5.00
2023-04-02T19:14:24.128Z,5.45
2023-04-02T19:17:17.789Z,4.78
2023-04-02T19:19:45.943Z,4.50
2023-04-02T19:22:24.043Z,4.95
2023-04-02T19:25:02.029Z,4.55
2023-04-02T19:28:12.199Z,5.15
2023-04-02T19:30:57.581Z,5.38
2023-04-02T19:33:42.804Z,5.13
2023-04-02T19:36:16.620Z,5.18
2023-04-02T19:39:17.889Z,5.82
2023-04-02T19:42:22.544Z,6.30
2023-04-02T19:44:52.926Z,5.60
2023-04-02T19:47:21.216Z,5.53
2023-04-02T19:49:49.001Z,4.97
2023-04-02T19:52:16.852Z,6.53
2023-04-02T19:54:44.859Z,6.07
2023-04-02T19:57:17.208Z,5.93
2023-04-02T19:59:45.875Z,6.47
2023-04-02T20:02:13.836Z,6.75
2023-04-02T20:04:43.157Z,6.63
2023-04-02T20:07:11.018Z,6.70
2023-04-02T20:09:38.736Z,6.40
2023-04-02T20:12:07.371Z,7.10
2023-04-02T20:14:35.394Z,6.78
2023-04-02T20:17:03.162Z,6.53
2023-04-02T20:19:30.822Z,8.05
2023-04-02T20:21:58.396Z,6.75
2023-04-02T20:24:26.207Z,6.55
2023-04-02T20:26:53.511Z,7.43
2023-04-02T20:29:22.566Z,7.70
2023-04-02T20:31:50.032Z,7.93
2023-04-02T20:34:18.066Z,7.30
2023-04-02T20:36:46.254Z,10.75
2023-04-02T20:39:19.557Z,9.23
2023-04-02T20:41:47.738Z,7.20
2023-04-02T20:44:14.954Z,7.55
2023-04-02T20:46:42.606Z,7.28
2023-04-02T20:49:09.713Z,6.80
2023-04-02T20:51:36.860Z,6.45
2023-04-02T20:54:04.406Z,6.18
2023-04-02T20:56:31.860Z,6.60
2023-04-02T20:58:59.039Z,5.60
2023-04-02T21:01:30.303Z,5.65
2023-04-02T21:04:02.799Z,5.53
2023-04-02T21:06:32.884Z,5.75
2023-04-02T21:09:02.122Z,6.43
2023-04-02T21:11:29.426Z,6.25
2023-04-02T21:13:56.846Z,5.38
2023-04-02T21:16:29.821Z,5.60
2023-04-02T21:19:00.905Z,5.88
2023-04-02T21:21:28.834Z,6.35
2023-04-02T21:23:59.597Z,5.75
2023-04-02T21:26:28.409Z,6.63
2023-04-02T21:28:56.082Z,5.43
2023-04-02T21:31:25.859Z,5.97
2023-04-02T21:33:55.844Z,6.38
2023-04-02T21:36:26.081Z,5.63
2023-04-02T21:39:01.917Z,5.13
2023-04-02T21:41:32.530Z,5.30
2023-04-02T21:44:03.252Z,4.68
2023-04-02T21:46:33.596Z,5.28
2023-04-02T21:49:01.142Z,5.18
2023-04-02T21:51:31.005Z,4.80
2023-04-02T21:53:59.262Z,4.15
2023-04-02T21:56:31.809Z,4.10
2023-04-02T21:59:01.960Z,5.13
2023-04-02T22:01:34.686Z,4.80
2023-04-02T22:04:04.530Z,5.28
2023-04-02T22:06:33.377Z,4.20
2023-04-02T22:09:05.050Z,4.40
2023-04-02T22:11:35.806Z,4.65
2023-04-02T22:14:03.746Z,4.40
2023-04-02T22:16:32.755Z,2.95
2023-04-02T22:19:02.149Z,3.30
2023-04-02T22:21:30.681Z,2.83
2023-04-02T22:24:01.816Z,2.85
2023-04-02T22:26:31.805Z,2.88
2023-04-02T22:28:59.636Z,2.40
2023-04-02T22:31:29.832Z,2.47
2023-04-02T22:33:58.158Z,2.78
2023-04-02T22:36:26.832Z,2.47
2023-04-02T22:38:54.398Z,2.60
2023-04-02T22:41:26.489Z,2.35
2023-04-02T22:43:55.355Z,2.60
2023-04-02T22:46:23.566Z,3.55
2023-04-02T22:48:51.034Z,4.25
2023-04-02T22:51:20.808Z,4.93
2023-04-02T22:53:49.082Z,4.65
2023-04-02T22:56:21.730Z,4.30
2023-04-02T22:58:49.300Z,4.45
2023-04-02T23:01:23.786Z,5.05
2023-04-02T23:03:53.344Z,4.32
2023-04-02T23:06:20.967Z,4.15
2023-04-02T23:08:48.164Z,4.25
2023-04-02T23:11:23.575Z,4.05
2023-04-02T23:13:52.967Z,4.38
2023-04-02T23:16:22.999Z,4.55
2023-04-02T23:18:51.393Z,4.28
2023-04-02T23:21:20.115Z,4.88
2023-04-02T23:23:48.520Z,4.35
2023-04-02T23:26:19.962Z,4.13
2023-04-02T23:28:47.128Z,4.18
2023-04-02T23:31:20.189Z,4.20
2023-04-02T23:33:47.983Z,3.95
2023-04-02T23:36:21.672Z,4.70
2023-04-02T23:38:48.928Z,4.45
2023-04-02T23:41:17.274Z,4.53
2023-04-02T23:43:44.623Z,4.68
2023-04-02T23:46:11.978Z,4.70
2023-04-02T23:48:39.245Z,4.70
2023-04-02T23:51:07.186Z,5.28
2023-04-02T23:53:34.988Z,4.55
2023-04-02T23:56:02.220Z,5.10
2023-04-02T23:58:29.700Z,4.68
